aviador You're here:

KROG Decoded Metar

ROGERS in AR, USA
Report Time2017-06-27 04:58:00
UTC Time2017-06-27 05:25:19
Flight Rules vfr VFR
WindCalm
Visibility9999 m
Phenomena:N/A
Clouds:Scattered 120 Hf
Expected CloudBase > 800 ft AGL from Temp-Dew spread
CeilingNone
Temp20°C (ISA +8)
Dew Point18°C (88% RH)
QNH1020 hPa
Density Alt2,306 ft
Elevation1,362 ft
Report Wrong Elevation
Raw Report
KROG 270458Z AUTO 00000KT 9SM SCT120 20/18 A3011 RMK AO2 SLP183
T02000178 402940183 PNO $=

Extra information for KROG:More info

Metar Taf Metar & Taf Last 4 Metars F.Rules Stats Wind Profile Meteogram Temp Stats Airport Information Weather charts Add Link Nearby VenuesMetar ALERT Operation Metar Decoded Social comments

AIRNAV info for KROG